createdAt,value
2022-11-27T00:01:10.732Z,13.30
2022-11-27T00:03:13.841Z,12.15
2022-11-27T00:05:17.138Z,14.50
2022-11-27T00:07:20.409Z,11.45
2022-11-27T00:09:23.640Z,12.23
2022-11-27T00:11:29.815Z,14.68
2022-11-27T00:13:32.888Z,13.60
2022-11-27T00:15:35.974Z,15.55
2022-11-27T00:17:39.064Z,12.82
2022-11-27T00:19:42.400Z,11.43
2022-11-27T00:21:45.537Z,11.05
2022-11-27T00:23:48.869Z,14.57
2022-11-27T00:25:52.551Z,13.52
2022-11-27T00:27:56.970Z,15.68
2022-11-27T00:29:59.956Z,13.35
2022-11-27T00:32:03.525Z,13.07
2022-11-27T00:34:08.665Z,12.23
2022-11-27T00:36:12.725Z,15.43
2022-11-27T00:38:15.856Z,11.65
2022-11-27T00:40:19.099Z,12.07
2022-11-27T00:42:22.126Z,12.02
2022-11-27T00:44:26.553Z,17.90
2022-11-27T00:46:34.117Z,12.60
2022-11-27T00:48:37.526Z,11.93
2022-11-27T00:50:40.811Z,12.95
2022-11-27T00:52:43.796Z,13.20
2022-11-27T00:54:46.848Z,11.63
2022-11-27T00:56:49.827Z,11.60
2022-11-27T00:58:53.046Z,12.02
2022-11-27T01:00:57.757Z,12.43
2022-11-27T01:03:00.818Z,12.18
2022-11-27T01:05:03.813Z,10.95
2022-11-27T01:07:06.751Z,11.55
2022-11-27T01:09:10.749Z,11.93
2022-11-27T01:11:15.713Z,13.90
2022-11-27T01:13:18.768Z,13.02
2022-11-27T01:15:21.961Z,14.05
2022-11-27T01:17:26.552Z,11.68
2022-11-27T01:19:29.486Z,11.80
2022-11-27T01:21:34.674Z,11.95
2022-11-27T01:23:37.779Z,13.18
2022-11-27T01:25:40.804Z,13.15
2022-11-27T01:27:43.744Z,11.68
2022-11-27T01:29:46.743Z,11.15
2022-11-27T01:31:49.876Z,12.35
2022-11-27T01:33:56.431Z,12.55
2022-11-27T01:36:00.991Z,10.68
2022-11-27T01:38:04.412Z,11.13
2022-11-27T01:40:08.983Z,11.90
2022-11-27T01:42:12.390Z,14.07
2022-11-27T01:44:49.892Z,10.98
2022-11-27T01:46:54.717Z,12.02
2022-11-27T01:49:02.713Z,10.60
2022-11-27T01:51:06.017Z,14.23
2022-11-27T01:53:14.337Z,11.07
2022-11-27T01:55:22.964Z,12.07
2022-11-27T01:57:28.599Z,12.77
2022-11-27T01:59:31.756Z,11.15
2022-11-27T02:01:34.973Z,12.70
2022-11-27T02:03:38.711Z,14.32
2022-11-27T02:05:44.400Z,12.77
2022-11-27T02:07:48.465Z,12.38
2022-11-27T02:09:52.534Z,10.93
2022-11-27T02:12:02.719Z,11.60
2022-11-27T02:14:12.086Z,14.48
2022-11-27T02:16:20.721Z,10.18
2022-11-27T02:18:32.287Z,11.30
2022-11-27T02:20:41.891Z,10.90
2022-11-27T02:22:59.213Z,11.93
2022-11-27T02:25:07.945Z,11.25
2022-11-27T02:27:34.647Z,11.30
2022-11-27T02:29:40.879Z,15.23
2022-11-27T02:31:50.882Z,12.27
2022-11-27T02:33:56.265Z,11.88
2022-11-27T02:36:03.715Z,11.85
2022-11-27T02:38:10.265Z,10.63
2022-11-27T02:40:18.503Z,14.55
2022-11-27T02:42:22.668Z,9.88
2022-11-27T02:44:27.463Z,16.65
2022-11-27T02:46:32.544Z,13.75
2022-11-27T02:48:40.201Z,10.27
2022-11-27T02:50:45.395Z,9.90
2022-11-27T02:52:50.754Z,10.30
2022-11-27T02:54:57.153Z,11.60
2022-11-27T02:57:03.627Z,10.82
2022-11-27T02:59:10.543Z,10.02
2022-11-27T03:01:15.143Z,11.07
2022-11-27T03:03:22.536Z,9.30
2022-11-27T03:05:29.792Z,9.80
2022-11-27T03:07:38.897Z,10.52
2022-11-27T03:09:46.282Z,8.93
2022-11-27T03:11:49.937Z,11.80
2022-11-27T03:13:55.112Z,11.85
2022-11-27T03:16:04.471Z,10.73
2022-11-27T03:18:13.621Z,11.85
2022-11-27T03:20:23.039Z,13.38
2022-11-27T03:22:28.017Z,10.45
2022-11-27T03:24:32.158Z,12.80
2022-11-27T03:26:35.865Z,11.95
2022-11-27T03:28:39.421Z,11.45
2022-11-27T03:30:42.862Z,14.48
2022-11-27T03:32:46.920Z,14.27
2022-11-27T03:34:50.334Z,9.77
2022-11-27T03:36:54.904Z,14.32
2022-11-27T03:38:58.071Z,13.70
2022-11-27T03:41:04.444Z,10.60
2022-11-27T03:43:12.204Z,9.50
2022-11-27T03:45:18.956Z,11.35
2022-11-27T03:47:35.657Z,12.25
2022-11-27T03:49:50.360Z,12.32
2022-11-27T03:51:59.845Z,9.90
2022-11-27T03:54:06.715Z,12.25
2022-11-27T03:56:14.483Z,10.07
2022-11-27T03:58:22.222Z,11.45
2022-11-27T04:00:25.590Z,9.85
2022-11-27T04:02:31.505Z,12.63
2022-11-27T04:04:34.943Z,9.88
2022-11-27T04:06:37.987Z,9.20
2022-11-27T04:08:42.943Z,10.63
2022-11-27T04:10:45.978Z,11.35
2022-11-27T04:12:49.005Z,14.05
2022-11-27T04:14:52.262Z,10.77
2022-11-27T04:16:55.222Z,9.85
2022-11-27T04:18:58.279Z,12.95
2022-11-27T04:21:01.569Z,9.18
2022-11-27T04:23:04.821Z,12.60
2022-11-27T04:25:10.375Z,11.50
2022-11-27T04:27:13.421Z,11.60
2022-11-27T04:29:16.361Z,13.00
2022-11-27T04:31:19.396Z,10.63
2022-11-27T04:33:22.617Z,9.25
2022-11-27T04:35:25.634Z,9.85
2022-11-27T04:37:28.617Z,10.18
2022-11-27T04:39:31.781Z,8.93
2022-11-27T04:41:36.062Z,9.88
2022-11-27T04:43:38.959Z,9.55
2022-11-27T04:45:43.813Z,11.00
2022-11-27T04:47:46.826Z,9.68
2022-11-27T04:49:49.787Z,10.32
2022-11-27T04:51:52.735Z,9.73
2022-11-27T04:53:55.791Z,9.80
2022-11-27T04:55:58.769Z,9.25
2022-11-27T04:58:03.132Z,9.18
2022-11-27T05:00:07.469Z,9.55
2022-11-27T05:02:11.861Z,8.90
2022-11-27T05:04:14.969Z,8.98
2022-11-27T05:06:17.947Z,8.93
2022-11-27T05:08:20.962Z,10.10
2022-11-27T05:10:23.964Z,9.90
2022-11-27T05:12:26.966Z,12.05
2022-11-27T05:14:31.606Z,11.35
2022-11-27T05:16:34.577Z,10.30
2022-11-27T05:18:37.735Z,11.02
2022-11-27T05:20:40.909Z,14.63
2022-11-27T05:22:44.272Z,11.13
2022-11-27T05:24:47.209Z,13.70
2022-11-27T05:26:50.721Z,10.23
2022-11-27T05:28:53.765Z,12.15
2022-11-27T05:30:58.109Z,10.05
2022-11-27T05:33:01.204Z,8.82
2022-11-27T05:35:04.416Z,9.32
2022-11-27T05:37:07.460Z,10.10
2022-11-27T05:39:11.153Z,8.45
2022-11-27T05:41:14.224Z,8.85
2022-11-27T05:43:17.173Z,10.45
2022-11-27T05:45:20.504Z,8.27
2022-11-27T05:47:24.884Z,9.88
2022-11-27T05:49:27.957Z,10.65
2022-11-27T05:51:31.177Z,9.50
2022-11-27T05:53:34.751Z,9.40
2022-11-27T05:55:37.895Z,10.13
2022-11-27T05:57:40.905Z,9.95
2022-11-27T05:59:43.908Z,10.02
2022-11-27T06:01:46.906Z,9.20
2022-11-27T06:03:51.277Z,10.23
2022-11-27T06:05:54.369Z,10.85
2022-11-27T06:07:57.407Z,8.95
2022-11-27T06:10:00.433Z,9.65
2022-11-27T06:12:03.387Z,9.77
2022-11-27T06:14:08.539Z,9.57
2022-11-27T06:16:13.765Z,9.98
2022-11-27T06:18:16.700Z,9.98
2022-11-27T06:20:21.360Z,8.30
2022-11-27T06:22:24.381Z,8.05
2022-11-27T06:24:27.874Z,7.30
2022-11-27T06:26:32.753Z,8.60
2022-11-27T06:28:35.682Z,8.70
2022-11-27T06:30:39.089Z,9.38
2022-11-27T06:32:42.332Z,10.50
2022-11-27T06:34:45.287Z,10.52
2022-11-27T06:36:50.613Z,9.40
2022-11-27T06:38:53.695Z,11.00
2022-11-27T06:40:56.660Z,10.30
2022-11-27T06:43:02.867Z,10.00
2022-11-27T06:45:08.198Z,10.10
2022-11-27T06:47:11.358Z,10.60
2022-11-27T06:49:14.456Z,14.80
2022-11-27T06:51:18.961Z,13.55
2022-11-27T06:53:23.748Z,8.80
2022-11-27T06:55:26.912Z,9.60
2022-11-27T06:57:30.037Z,9.10
2022-11-27T06:59:33.213Z,8.27
2022-11-27T07:01:36.315Z,9.18
2022-11-27T07:03:39.677Z,7.88
2022-11-27T07:05:42.834Z,8.10
2022-11-27T07:07:45.871Z,7.57
2022-11-27T07:09:50.277Z,8.48
2022-11-27T07:11:53.307Z,7.50
2022-11-27T07:13:58.173Z,7.93
2022-11-27T07:16:02.336Z,7.63
2022-11-27T07:18:05.387Z,7.25
2022-11-27T07:20:09.586Z,7.00
2022-11-27T07:22:12.620Z,7.70
2022-11-27T07:24:15.573Z,7.50
2022-11-27T07:26:21.834Z,8.75
2022-11-27T07:28:25.871Z,7.85
2022-11-27T07:30:28.987Z,10.55
2022-11-27T07:32:32.569Z,10.25
2022-11-27T07:34:35.568Z,9.70
2022-11-27T07:36:38.579Z,7.90
2022-11-27T07:38:41.747Z,7.45
2022-11-27T07:40:44.739Z,7.40
2022-11-27T07:42:50.639Z,8.70
2022-11-27T07:44:53.686Z,7.97
2022-11-27T07:46:57.496Z,8.60
2022-11-27T07:49:01.275Z,11.38
2022-11-27T07:51:07.048Z,10.82
2022-11-27T07:53:10.516Z,10.07
2022-11-27T07:55:13.610Z,10.52
2022-11-27T07:57:16.674Z,10.05
2022-11-27T07:59:21.152Z,10.52
2022-11-27T08:01:24.244Z,9.55
2022-11-27T08:03:27.341Z,9.82
2022-11-27T08:05:30.408Z,9.00
2022-11-27T08:07:33.455Z,10.00
2022-11-27T08:09:37.784Z,11.10
2022-11-27T08:11:41.425Z,8.90
2022-11-27T08:13:44.773Z,7.90
2022-11-27T08:15:49.169Z,8.52
2022-11-27T08:17:52.242Z,8.95
2022-11-27T08:19:55.314Z,10.73
2022-11-27T08:21:58.377Z,13.80
2022-11-27T08:24:01.407Z,24.92
2022-11-27T08:26:07.091Z,12.02
2022-11-27T08:28:10.074Z,8.20
2022-11-27T08:30:13.480Z,10.68
2022-11-27T08:32:18.020Z,8.43
2022-11-27T08:34:21.075Z,8.85
2022-11-27T08:36:26.514Z,16.27
2022-11-27T08:38:29.873Z,11.60
2022-11-27T08:40:33.385Z,11.38
2022-11-27T08:42:36.480Z,16.05
2022-11-27T08:44:39.721Z,10.38
2022-11-27T08:46:44.221Z,9.65
2022-11-27T08:48:48.572Z,10.45
2022-11-27T08:50:51.937Z,9.77
2022-11-27T08:52:54.878Z,9.82
2022-11-27T08:54:58.407Z,9.77
2022-11-27T08:57:01.593Z,10.02
2022-11-27T08:59:04.781Z,9.70
2022-11-27T09:01:09.698Z,10.10
2022-11-27T09:03:13.325Z,9.05
2022-11-27T09:05:17.867Z,10.30
2022-11-27T09:07:20.996Z,9.30
2022-11-27T09:09:24.034Z,9.93
2022-11-27T09:11:27.369Z,10.85
2022-11-27T09:13:30.471Z,9.85
2022-11-27T09:15:33.697Z,11.43
2022-11-27T09:17:36.813Z,11.95
2022-11-27T09:19:39.779Z,11.40
2022-11-27T09:21:44.288Z,11.07
2022-11-27T09:23:47.336Z,10.20
2022-11-27T09:25:50.495Z,11.02
2022-11-27T09:27:53.560Z,13.30
2022-11-27T09:29:56.642Z,13.77
2022-11-27T09:31:59.721Z,19.95
2022-11-27T09:34:04.325Z,17.33
2022-11-27T09:36:09.064Z,14.85
2022-11-27T09:38:13.448Z,12.18
2022-11-27T09:40:17.969Z,12.93
2022-11-27T09:42:30.878Z,13.02
2022-11-27T09:44:40.035Z,10.55
2022-11-27T09:46:44.149Z,8.85
2022-11-27T09:48:50.508Z,10.05
2022-11-27T09:50:54.756Z,10.75
2022-11-27T09:53:00.803Z,10.25
2022-11-27T09:55:11.126Z,9.55
2022-11-27T09:57:17.312Z,10.75
2022-11-27T09:59:22.846Z,16.80
2022-11-27T10:01:36.480Z,12.25
2022-11-27T10:03:44.864Z,10.75
2022-11-27T10:05:49.688Z,11.75
2022-11-27T10:08:08.842Z,12.25
2022-11-27T10:10:25.958Z,11.35
2022-11-27T10:12:35.093Z,9.55
2022-11-27T10:14:55.079Z,12.68
2022-11-27T10:17:01.770Z,13.10
2022-11-27T10:19:10.005Z,11.68
2022-11-27T10:21:16.790Z,11.15
2022-11-27T10:23:25.908Z,9.13
2022-11-27T10:25:36.131Z,10.90
2022-11-27T10:27:44.152Z,10.65
2022-11-27T10:29:50.478Z,10.60
2022-11-27T10:31:57.392Z,9.73
2022-11-27T10:34:02.700Z,10.07
2022-11-27T10:36:09.219Z,9.20
2022-11-27T10:38:15.523Z,11.18
2022-11-27T10:40:22.289Z,10.68
2022-11-27T10:42:33.002Z,10.60
2022-11-27T10:44:39.589Z,10.70
2022-11-27T10:46:42.971Z,8.80
2022-11-27T10:48:45.973Z,9.05
2022-11-27T10:50:49.862Z,9.73
2022-11-27T10:52:55.463Z,8.10
2022-11-27T10:55:00.338Z,8.10
2022-11-27T10:57:50.747Z,7.80
2022-11-27T11:00:05.676Z,6.53
2022-11-27T11:02:28.152Z,6.93
2022-11-27T11:04:39.947Z,7.15
2022-11-27T11:06:45.387Z,7.18
2022-11-27T11:08:48.502Z,7.75
2022-11-27T11:10:54.898Z,6.50
2022-11-27T11:13:15.230Z,6.70
2022-11-27T11:15:19.873Z,6.78
2022-11-27T11:17:27.539Z,6.05
2022-11-27T11:19:32.515Z,7.45
2022-11-27T11:21:40.445Z,7.05
2022-11-27T11:23:43.683Z,6.03
2022-11-27T11:25:50.775Z,6.80
2022-11-27T11:27:54.117Z,7.40
2022-11-27T11:29:59.892Z,7.18
2022-11-27T11:32:10.985Z,8.00
2022-11-27T11:34:20.399Z,4.90
2022-11-27T11:36:23.751Z,5.50
2022-11-27T11:38:31.021Z,6.00
2022-11-27T11:40:35.763Z,4.15
2022-11-27T11:42:38.815Z,7.63
2022-11-27T11:44:42.293Z,3.20
2022-11-27T11:46:52.713Z,2.37
2022-11-27T11:49:00.407Z,2.47
2022-11-27T11:51:09.343Z,2.00
2022-11-27T11:53:16.633Z,2.30
2022-11-27T11:55:21.454Z,2.60
2022-11-27T11:58:02.556Z,2.10
2022-11-27T12:00:10.041Z,2.03
2022-11-27T12:02:40.688Z,2.50
2022-11-27T12:05:02.932Z,1.73
2022-11-27T12:07:15.281Z,2.10
2022-11-27T12:09:28.740Z,1.80
2022-11-27T12:11:37.740Z,1.57
2022-11-27T12:13:52.370Z,1.73
2022-11-27T12:16:00.949Z,1.30
2022-11-27T12:18:08.018Z,1.27
2022-11-27T12:20:18.382Z,1.40
2022-11-27T12:22:37.049Z,1.50
2022-11-27T12:24:46.799Z,1.60
2022-11-27T12:27:02.581Z,1.30
2022-11-27T12:29:21.978Z,1.40
2022-11-27T12:31:32.760Z,1.10
2022-11-27T12:33:45.171Z,1.23
2022-11-27T12:35:54.212Z,1.40
2022-11-27T12:38:06.465Z,1.60
2022-11-27T12:40:25.671Z,1.60
2022-11-27T12:42:31.987Z,1.20
2022-11-27T12:44:44.953Z,1.33
2022-11-27T12:46:53.992Z,2.10
2022-11-27T12:49:00.294Z,2.17
2022-11-27T12:51:08.248Z,2.20
2022-11-27T12:53:20.177Z,2.03
2022-11-27T12:55:30.178Z,1.57
2022-11-27T12:57:39.852Z,2.33
2022-11-27T12:59:46.891Z,1.83
2022-11-27T13:01:55.414Z,1.60
2022-11-27T13:04:06.838Z,1.50
2022-11-27T13:06:13.573Z,1.50
2022-11-27T13:08:20.114Z,1.83
2022-11-27T13:10:26.584Z,1.80
2022-11-27T13:12:32.828Z,1.73
2022-11-27T13:14:37.081Z,1.10
2022-11-27T13:16:46.738Z,1.60
2022-11-27T13:18:53.153Z,1.60
2022-11-27T13:20:59.496Z,1.53
2022-11-27T13:23:03.931Z,1.60
2022-11-27T13:25:07.676Z,1.13
2022-11-27T13:27:13.460Z,2.10
2022-11-27T13:29:20.188Z,1.10
2022-11-27T13:31:25.392Z,1.30
2022-11-27T13:33:37.691Z,1.43
2022-11-27T13:35:42.061Z,1.10
2022-11-27T13:37:46.161Z,1.30
2022-11-27T13:39:50.674Z,1.50
2022-11-27T13:42:03.901Z,1.40
2022-11-27T13:44:11.571Z,1.70
2022-11-27T13:46:21.946Z,1.60
2022-11-27T13:48:33.113Z,1.43
2022-11-27T13:50:44.434Z,1.23
2022-11-27T13:52:57.269Z,1.23
2022-11-27T13:55:03.152Z,1.43
2022-11-27T13:57:14.398Z,2.50
2022-11-27T13:59:19.543Z,1.50
2022-11-27T14:01:24.631Z,1.80
2022-11-27T14:03:29.139Z,1.60
2022-11-27T14:05:37.783Z,1.57
2022-11-27T14:07:42.909Z,1.50
2022-11-27T14:09:48.024Z,1.73
2022-11-27T14:11:53.517Z,1.50
2022-11-27T14:13:57.848Z,1.70
2022-11-27T14:16:02.747Z,1.38
2022-11-27T14:18:09.402Z,1.45
2022-11-27T14:20:30.531Z,1.67
2022-11-27T14:23:09.923Z,1.80
2022-11-27T14:25:18.964Z,1.80
2022-11-27T14:27:25.414Z,1.70
2022-11-27T14:29:31.314Z,1.42
2022-11-27T14:31:36.385Z,1.70
2022-11-27T14:34:13.492Z,1.47
2022-11-27T14:36:08.963Z,1.80
2022-11-27T14:38:12.655Z,1.67
2022-11-27T14:40:16.829Z,1.77
2022-11-27T14:42:28.120Z,1.30
2022-11-27T14:44:32.723Z,1.47
2022-11-27T14:46:37.662Z,1.50
2022-11-27T14:48:44.708Z,1.50
2022-11-27T14:50:48.674Z,1.53
2022-11-27T14:52:54.123Z,1.80
2022-11-27T14:54:58.448Z,1.80
2022-11-27T14:57:01.783Z,1.67
2022-11-27T14:59:06.736Z,1.90
2022-11-27T15:01:23.473Z,1.57
2022-11-27T15:03:27.538Z,1.83
2022-11-27T15:05:37.995Z,2.33
2022-11-27T15:07:47.886Z,1.58
2022-11-27T15:09:55.382Z,1.40
2022-11-27T15:12:02.054Z,1.38
2022-11-27T15:14:07.933Z,2.33
2022-11-27T15:16:15.919Z,2.07
2022-11-27T15:18:23.273Z,1.90
2022-11-27T15:20:29.704Z,1.63
2022-11-27T15:22:33.608Z,2.20
2022-11-27T15:24:37.775Z,1.80
2022-11-27T15:26:43.289Z,2.40
2022-11-27T15:28:52.771Z,2.35
2022-11-27T15:30:57.975Z,2.67
2022-11-27T15:33:01.260Z,2.20
2022-11-27T15:35:14.205Z,1.52
2022-11-27T15:37:23.439Z,2.00
2022-11-27T15:39:28.590Z,1.90
2022-11-27T15:41:31.754Z,2.25
2022-11-27T15:43:34.982Z,2.30
2022-11-27T15:45:38.131Z,2.50
2022-11-27T15:47:42.528Z,2.15
2022-11-27T15:49:46.153Z,2.20
2022-11-27T15:51:49.247Z,2.75
2022-11-27T15:53:53.438Z,1.85
2022-11-27T15:55:56.526Z,1.70
2022-11-27T15:57:59.539Z,1.80
2022-11-27T16:00:04.080Z,2.20
2022-11-27T16:02:17.967Z,2.05
2022-11-27T16:04:25.064Z,2.00
2022-11-27T16:06:28.177Z,2.78
2022-11-27T16:08:31.256Z,2.00
2022-11-27T16:10:34.536Z,2.13
2022-11-27T16:12:38.784Z,1.90
2022-11-27T16:14:42.235Z,2.15
2022-11-27T16:16:45.674Z,2.60
2022-11-27T16:18:48.878Z,2.20
2022-11-27T16:20:53.270Z,2.20
2022-11-27T16:22:56.542Z,2.20
2022-11-27T16:24:59.582Z,2.17
2022-11-27T16:27:02.675Z,2.30
2022-11-27T16:29:05.937Z,2.50
2022-11-27T16:31:10.644Z,2.85
2022-11-27T16:33:13.833Z,2.80
2022-11-27T16:35:16.915Z,2.95
2022-11-27T16:37:23.294Z,2.50
2022-11-27T16:39:26.975Z,3.30
2022-11-27T16:41:30.063Z,3.73
2022-11-27T16:43:36.297Z,3.20
2022-11-27T16:45:40.237Z,2.72
2022-11-27T16:47:44.910Z,3.53
2022-11-27T16:49:50.192Z,3.10
2022-11-27T16:51:53.452Z,2.70
2022-11-27T16:54:01.933Z,2.92
2022-11-27T16:56:05.554Z,3.85
2022-11-27T16:58:08.816Z,2.72
2022-11-27T17:00:12.541Z,2.88
2022-11-27T17:02:15.953Z,2.70
2022-11-27T17:04:20.551Z,3.10
2022-11-27T17:06:26.561Z,3.20
2022-11-27T17:08:29.657Z,3.50
2022-11-27T17:10:34.165Z,4.13
2022-11-27T17:12:37.247Z,4.45
2022-11-27T17:14:42.506Z,4.95
2022-11-27T17:16:45.804Z,4.32
2022-11-27T17:18:50.326Z,4.38
2022-11-27T17:20:53.552Z,4.75
2022-11-27T17:22:56.764Z,4.93
2022-11-27T17:25:00.214Z,4.75
2022-11-27T17:27:04.883Z,4.45
2022-11-27T17:29:07.967Z,4.50
2022-11-27T17:31:11.885Z,5.00
2022-11-27T17:33:15.369Z,5.30
2022-11-27T17:35:18.551Z,5.15
2022-11-27T17:37:22.085Z,5.03
2022-11-27T17:39:25.140Z,4.95
2022-11-27T17:41:28.217Z,5.25
2022-11-27T17:43:32.584Z,6.15
2022-11-27T17:45:35.895Z,12.43
2022-11-27T17:47:39.104Z,6.03
2022-11-27T17:49:42.904Z,5.40
2022-11-27T17:51:46.928Z,5.43
2022-11-27T17:53:50.797Z,6.57
2022-11-27T17:55:55.510Z,5.82
2022-11-27T17:57:59.356Z,6.78
2022-11-27T18:00:03.968Z,5.72
2022-11-27T18:02:17.837Z,9.60
2022-11-27T18:04:21.495Z,5.57
2022-11-27T18:06:24.581Z,6.20
2022-11-27T18:08:28.136Z,5.07
2022-11-27T18:10:31.309Z,7.20
2022-11-27T18:12:34.585Z,5.85
2022-11-27T18:14:38.049Z,6.07
2022-11-27T18:16:42.835Z,6.05
2022-11-27T18:18:46.549Z,6.32
2022-11-27T18:20:49.680Z,5.95
2022-11-27T18:22:52.853Z,6.30
2022-11-27T18:24:56.196Z,7.45
2022-11-27T18:27:08.174Z,6.72
2022-11-27T18:29:12.216Z,6.35
2022-11-27T18:31:17.636Z,6.20
2022-11-27T18:33:23.534Z,5.82
2022-11-27T18:35:26.814Z,6.25
2022-11-27T18:37:30.034Z,6.50
2022-11-27T18:39:33.424Z,7.38
2022-11-27T18:41:37.228Z,5.97
2022-11-27T18:43:40.570Z,6.40
2022-11-27T18:45:43.985Z,6.40
2022-11-27T18:47:47.248Z,6.60
2022-11-27T18:49:52.179Z,5.95
2022-11-27T18:51:56.479Z,6.22
2022-11-27T18:53:59.995Z,6.68
2022-11-27T18:56:05.301Z,6.55
2022-11-27T18:58:09.001Z,7.28
2022-11-27T19:00:14.057Z,7.57
2022-11-27T19:02:17.456Z,7.13
2022-11-27T19:04:20.665Z,7.00
2022-11-27T19:06:25.561Z,6.82
2022-11-27T19:08:28.777Z,7.28
2022-11-27T19:10:31.997Z,6.75
2022-11-27T19:12:35.195Z,7.07
2022-11-27T19:14:38.532Z,6.97
2022-11-27T19:16:46.104Z,7.40
2022-11-27T19:18:50.181Z,6.22
2022-11-27T19:20:55.145Z,6.32
2022-11-27T19:23:00.438Z,6.70
2022-11-27T19:25:03.725Z,6.28
2022-11-27T19:27:06.967Z,7.35
2022-11-27T19:29:16.361Z,7.30
2022-11-27T19:31:21.176Z,6.32
2022-11-27T19:33:25.200Z,12.90
2022-11-27T19:35:28.356Z,26.63
2022-11-27T19:37:34.722Z,19.35
2022-11-27T19:39:40.278Z,9.70
2022-11-27T19:41:43.975Z,9.30
2022-11-27T19:43:47.741Z,10.82
2022-11-27T19:45:51.016Z,10.20
2022-11-27T19:47:54.422Z,10.35
2022-11-27T19:49:59.630Z,11.32
2022-11-27T19:52:02.834Z,10.15
2022-11-27T19:54:10.243Z,9.20
2022-11-27T19:56:16.541Z,9.15
2022-11-27T19:58:19.986Z,7.63
2022-11-27T20:00:23.755Z,6.90
2022-11-27T20:02:27.517Z,6.68
2022-11-27T20:04:30.753Z,6.90
2022-11-27T20:06:33.919Z,6.80
2022-11-27T20:08:37.861Z,6.28
2022-11-27T20:10:41.119Z,5.97
2022-11-27T20:12:45.567Z,5.93
2022-11-27T20:14:49.120Z,6.32
2022-11-27T20:16:52.428Z,5.78
2022-11-27T20:18:56.395Z,6.40
2022-11-27T20:21:05.591Z,6.78
2022-11-27T20:23:08.808Z,6.70
2022-11-27T20:25:19.513Z,9.27
2022-11-27T20:27:23.317Z,15.05
2022-11-27T20:29:27.845Z,10.43
2022-11-27T20:31:32.660Z,9.45
2022-11-27T20:33:35.900Z,11.15
2022-11-27T20:35:42.616Z,7.78
2022-11-27T20:37:45.708Z,10.02
2022-11-27T20:39:49.472Z,14.07
2022-11-27T20:41:53.670Z,10.98
2022-11-27T20:43:58.424Z,11.43
2022-11-27T20:46:02.988Z,8.93
2022-11-27T20:48:08.938Z,9.70
2022-11-27T20:50:13.080Z,9.60
2022-11-27T20:52:18.909Z,8.40
2022-11-27T20:54:23.115Z,9.10
2022-11-27T20:56:27.147Z,9.25
2022-11-27T20:58:30.283Z,9.07
2022-11-27T21:00:33.782Z,18.52
2022-11-27T21:02:41.705Z,8.65
2022-11-27T21:04:44.949Z,11.13
2022-11-27T21:06:50.132Z,10.38
2022-11-27T21:08:54.851Z,15.48
2022-11-27T21:10:58.627Z,14.02
2022-11-27T21:13:01.889Z,10.30
2022-11-27T21:15:05.755Z,9.35
2022-11-27T21:17:08.963Z,9.27
2022-11-27T21:19:16.370Z,7.10
2022-11-27T21:21:19.415Z,9.75
2022-11-27T21:23:22.834Z,13.30
2022-11-27T21:25:27.242Z,14.70
2022-11-27T21:27:30.812Z,28.25
2022-11-27T21:29:34.356Z,26.15
2022-11-27T21:31:39.977Z,11.13
2022-11-27T21:33:47.785Z,9.57
2022-11-27T21:35:56.953Z,7.40
2022-11-27T21:38:00.779Z,7.30
2022-11-27T21:40:04.472Z,6.82
2022-11-27T21:42:07.912Z,6.20
2022-11-27T21:44:11.086Z,7.22
2022-11-27T21:46:17.441Z,8.35
2022-11-27T21:48:20.738Z,8.93
2022-11-27T21:50:23.775Z,7.20
2022-11-27T21:52:28.317Z,7.95
2022-11-27T21:54:31.413Z,10.25
2022-11-27T21:56:37.577Z,9.07
2022-11-27T21:58:40.693Z,8.13
2022-11-27T22:00:43.851Z,7.90
2022-11-27T22:02:46.990Z,7.65
2022-11-27T22:04:50.538Z,7.97
2022-11-27T22:06:53.750Z,8.02
2022-11-27T22:08:59.841Z,7.85
2022-11-27T22:11:03.196Z,7.63
2022-11-27T22:13:06.238Z,8.02
2022-11-27T22:15:10.013Z,7.32
2022-11-27T22:17:13.282Z,8.73
2022-11-27T22:19:18.046Z,9.75
2022-11-27T22:21:21.419Z,11.63
2022-11-27T22:23:24.795Z,9.75
2022-11-27T22:25:29.328Z,10.57
2022-11-27T22:27:32.399Z,9.40
2022-11-27T22:29:35.518Z,8.60
2022-11-27T22:31:39.198Z,9.30
2022-11-27T22:33:43.190Z,9.00
2022-11-27T22:35:46.230Z,7.40
2022-11-27T22:37:49.277Z,8.82
2022-11-27T22:39:52.559Z,6.45
2022-11-27T22:41:56.987Z,6.25
2022-11-27T22:44:02.549Z,6.78
2022-11-27T22:46:07.665Z,6.80
2022-11-27T22:48:10.890Z,8.35
2022-11-27T22:50:13.933Z,6.20
2022-11-27T22:52:16.934Z,6.10
2022-11-27T22:54:20.014Z,12.15
2022-11-27T22:56:23.556Z,14.07
2022-11-27T22:58:29.031Z,10.70
2022-11-27T23:00:32.728Z,10.18
2022-11-27T23:02:38.412Z,9.57
2022-11-27T23:04:42.316Z,7.43
2022-11-27T23:06:48.445Z,9.88
2022-11-27T23:08:52.916Z,8.10
2022-11-27T23:10:55.951Z,8.35
2022-11-27T23:12:59.075Z,9.10
2022-11-27T23:15:03.526Z,6.90
2022-11-27T23:17:06.699Z,6.43
2022-11-27T23:19:10.258Z,5.93
2022-11-27T23:21:15.257Z,6.25
2022-11-27T23:23:18.296Z,6.50
2022-11-27T23:25:21.292Z,5.93
2022-11-27T23:27:24.305Z,6.20
2022-11-27T23:29:27.508Z,5.63
2022-11-27T23:31:35.115Z,6.18
2022-11-27T23:33:39.288Z,5.90
2022-11-27T23:35:42.225Z,6.70
2022-11-27T23:37:45.287Z,5.63
2022-11-27T23:39:48.327Z,5.80
2022-11-27T23:41:51.438Z,6.03
2022-11-27T23:43:55.227Z,6.57
2022-11-27T23:45:59.433Z,6.07
2022-11-27T23:48:03.857Z,6.22
2022-11-27T23:50:08.487Z,6.28
2022-11-27T23:52:16.834Z,5.85
2022-11-27T23:54:20.368Z,5.75
2022-11-27T23:56:25.051Z,6.53
2022-11-27T23:58:28.083Z,5.78
